Colton, SD (57018)

7:33 AM CDT on May 29, 2015 (GMT -0500)
477th | | Change Station
CLOSE
Current Station
Personal Weather Station
Location: Baltic, SD
Elevation: 1562 ft
Nearby Weather Stations

Elev 1562 ft 43.71 °N, 96.67 °W | Updated 9 minutes ago

Overcast
Overcast
63.5 °F
Feels Like 63.5 °F
N
2.7
Wind Variable Wind from NW

Today
High -- | Low -- °F
--% Chance of Precip.
Yesterday
High -- | Low -- °F
Precip. -- in
5:50 AM 9:00 PM
Waxing Gibbous, 83% visible
Pressure 29.85 in
Visibility 4.0 miles
Clouds Mostly Cloudy 600 ft
Overcast 8000 ft
Dew Point 63 °F
Humidity 99%
Rainfall 0.34 in
Snow Depth Not available.
UV 0 out of 12
Pollen 1.50 out of 12
Air Quality Not available.
Flu Activity Sporadic
SPECI KFSD 291207Z 36006KT 4SM -RA BR BKN006 OVC080 18/17 A2985 RMK AO2 RAB07 P0000 T01780172

More Conditions Fewer Conditions

Pressure 29.85 in
Visibility 4.0 miles
Clouds Mostly Cloudy 600 ft
Overcast 8000 ft
Dew Point 63 °F
Humidity 99%
Rainfall 0.34 in
Snow Depth Not available.
UV 0 out of 12
Pollen 1.50 out of 12
Air Quality Not available.
Flu Activity Sporadic
SPECI KFSD 291207Z 36006KT 4SM -RA BR BKN006 OVC080 18/17 A2985 RMK AO2 RAB07 P0000 T01780172

More Conditions Fewer Conditions

10-Day Weather Forecast

Almanac

Astronomy

May. 29, 2015 Rise Set
Actual Time
Civil Twilight
Nautical Twilight
Astronomical Twilight
Moon
Length of Visible Light
Length of Day
Tomorrow will be .
, % of the Moon is Illuminated

Today's Extremes

State Highs State Lows

Community

WunderPhotos

Upload Photos

1,825,250 photos uploaded!

WunderBlogs® & News

Nearby

Air Quality

  Air Quality AQ Index Pollutant
Not available.

Snow Depth

Station Depth Elevation

Earthquake Activity

City Distance Mag. Time & Date
Minimum magnitude displayed is 2.5.

Coastal Water Temperatures

Place Temperature

Stations

Nearby Weather Stations

Station Location Temp. Windchill Dew Point Humidity Wind Precip. Elev Updated Type